createdAt,value
2018-10-09T00:02:17.938Z,8.65
2018-10-09T00:04:47.226Z,8.57
2018-10-09T00:07:16.440Z,8.67
2018-10-09T00:09:45.706Z,8.59
2018-10-09T00:12:15.050Z,8.62
2018-10-09T00:14:45.909Z,8.61
2018-10-09T00:17:15.150Z,8.68
2018-10-09T00:19:44.377Z,8.72
2018-10-09T00:22:13.733Z,8.75
2018-10-09T00:24:43.093Z,8.73
2018-10-09T00:27:12.348Z,8.49
2018-10-09T00:29:41.715Z,8.66
2018-10-09T00:32:10.958Z,8.67
2018-10-09T00:34:40.358Z,8.46
2018-10-09T00:37:09.755Z,8.41
2018-10-09T00:39:38.986Z,8.56
2018-10-09T00:42:07.809Z,8.48
2018-10-09T00:44:36.994Z,8.32
2018-10-09T00:47:06.262Z,8.25
2018-10-09T00:49:35.735Z,8.31
2018-10-09T00:52:04.906Z,8.25
2018-10-09T00:54:34.087Z,8.14
2018-10-09T00:57:03.356Z,8.04
2018-10-09T00:59:32.535Z,8.05
2018-10-09T01:02:01.681Z,8.18
2018-10-09T01:04:30.976Z,8.17
2018-10-09T01:06:59.866Z,8.10
2018-10-09T01:09:29.029Z,8.04
2018-10-09T01:11:58.205Z,8.24
2018-10-09T01:14:27.365Z,8.18
2018-10-09T01:16:56.507Z,8.16
2018-10-09T01:19:25.774Z,8.19
2018-10-09T01:21:54.913Z,8.09
2018-10-09T01:24:24.061Z,8.13
2018-10-09T01:26:53.194Z,8.16
2018-10-09T01:29:22.330Z,8.38
2018-10-09T01:31:51.494Z,8.58
2018-10-09T01:34:20.772Z,8.75
2018-10-09T01:36:49.929Z,8.71
2018-10-09T01:39:19.227Z,8.61
2018-10-09T01:41:48.365Z,8.63
2018-10-09T01:44:17.983Z,8.79
2018-10-09T01:46:47.205Z,8.83
2018-10-09T01:49:16.481Z,8.86
2018-10-09T01:51:45.797Z,8.92
2018-10-09T01:54:15.007Z,9.09
2018-10-09T01:56:44.406Z,9.03
2018-10-09T01:59:13.665Z,8.94
2018-10-09T02:01:43.282Z,9.10
2018-10-09T02:04:18.293Z,8.91
2018-10-09T02:06:47.539Z,8.85
2018-10-09T02:09:16.781Z,8.90
2018-10-09T02:11:45.962Z,8.79
2018-10-09T02:14:15.453Z,8.71
2018-10-09T02:16:44.623Z,8.74
2018-10-09T02:19:15.330Z,8.71
2018-10-09T02:21:46.594Z,8.59
2018-10-09T02:24:16.098Z,8.62
2018-10-09T02:26:44.870Z,8.56
2018-10-09T02:29:14.058Z,8.43
2018-10-09T02:31:43.327Z,8.66
2018-10-09T02:34:12.485Z,8.53
2018-10-09T02:36:41.629Z,8.57
2018-10-09T02:39:12.042Z,8.62
2018-10-09T02:41:41.194Z,8.62
2018-10-09T02:44:10.838Z,8.42
2018-10-09T02:46:40.006Z,8.28
2018-10-09T02:49:09.209Z,8.40
2018-10-09T02:51:38.350Z,8.28
2018-10-09T02:54:07.771Z,8.20
2018-10-09T02:56:37.457Z,8.15
2018-10-09T02:59:06.949Z,8.14
2018-10-09T03:01:36.106Z,8.02
2018-10-09T03:04:05.397Z,8.08
2018-10-09T03:06:34.801Z,8.09
2018-10-09T03:09:05.286Z,8.20
2018-10-09T03:11:34.495Z,8.27
2018-10-09T03:14:03.962Z,8.44
2018-10-09T03:16:33.115Z,8.57
2018-10-09T03:19:02.626Z,8.55
2018-10-09T03:21:31.845Z,8.53
2018-10-09T03:24:01.371Z,8.46
2018-10-09T03:26:30.573Z,8.50
2018-10-09T03:28:59.689Z,8.72
2018-10-09T03:31:28.871Z,8.69
2018-10-09T03:33:58.093Z,8.64
2018-10-09T03:36:27.199Z,8.63
2018-10-09T03:38:56.353Z,8.59
2018-10-09T03:41:25.900Z,8.57
2018-10-09T03:43:55.241Z,8.59
2018-10-09T03:46:24.398Z,8.46
2018-10-09T03:48:53.538Z,8.49
2018-10-09T03:51:23.038Z,8.41
2018-10-09T03:53:52.173Z,8.25
2018-10-09T03:56:21.495Z,8.25
2018-10-09T03:58:50.605Z,8.27
2018-10-09T04:01:23.830Z,8.11
2018-10-09T04:03:52.982Z,8.09
2018-10-09T04:06:22.123Z,8.06
2018-10-09T04:08:51.481Z,8.14
2018-10-09T04:11:20.877Z,8.13
2018-10-09T04:13:50.197Z,8.23
2018-10-09T04:16:20.125Z,8.42
2018-10-09T04:18:49.993Z,8.61
2018-10-09T04:21:20.794Z,8.71
2018-10-09T04:23:50.397Z,8.73
2018-10-09T04:26:19.759Z,8.78
2018-10-09T04:28:49.077Z,8.78
2018-10-09T04:31:18.202Z,8.75
2018-10-09T04:33:47.333Z,8.70
2018-10-09T04:36:16.510Z,8.72
2018-10-09T04:38:45.685Z,8.74
2018-10-09T04:41:14.848Z,8.87
2018-10-09T04:43:44.578Z,8.97
2018-10-09T04:46:13.709Z,9.02
2018-10-09T04:48:42.841Z,9.20
2018-10-09T04:51:12.037Z,9.28
2018-10-09T04:53:41.302Z,9.34
2018-10-09T04:56:10.426Z,9.42
2018-10-09T04:58:39.559Z,9.57
2018-10-09T05:01:08.690Z,9.61
2018-10-09T05:03:38.091Z,9.72
2018-10-09T05:06:07.519Z,9.63
2018-10-09T05:08:37.029Z,9.60
2018-10-09T05:11:06.357Z,9.59
2018-10-09T05:13:35.720Z,9.61
2018-10-09T05:16:08.065Z,9.68
2018-10-09T05:18:37.511Z,9.75
2018-10-09T05:21:06.894Z,9.80
2018-10-09T05:23:37.517Z,9.86
2018-10-09T05:26:07.061Z,9.95
2018-10-09T05:28:36.980Z,10.03
2018-10-09T05:31:06.108Z,10.15
2018-10-09T05:33:35.254Z,10.17
2018-10-09T05:36:05.013Z,10.13
2018-10-09T05:38:34.121Z,10.26
2018-10-09T05:41:03.287Z,10.26
2018-10-09T05:43:32.386Z,10.25
2018-10-09T05:46:01.490Z,10.21
2018-10-09T05:48:32.255Z,10.24
2018-10-09T05:51:02.050Z,10.37
2018-10-09T05:53:31.055Z,10.26
2018-10-09T05:56:00.249Z,10.31
2018-10-09T05:58:29.401Z,10.36
2018-10-09T06:00:58.516Z,10.41
2018-10-09T06:03:27.930Z,10.50
2018-10-09T06:05:57.151Z,10.54
2018-10-09T06:08:26.345Z,10.55
2018-10-09T06:10:55.714Z,10.66
2018-10-09T06:13:25.638Z,10.75
2018-10-09T06:15:54.634Z,10.76
2018-10-09T06:18:24.644Z,10.83
2018-10-09T06:20:54.045Z,10.88
2018-10-09T06:23:22.925Z,10.86
2018-10-09T06:25:52.146Z,10.91
2018-10-09T06:28:21.312Z,10.95
2018-10-09T06:30:50.458Z,10.88
2018-10-09T06:33:19.562Z,11.07
2018-10-09T06:35:48.758Z,11.18
2018-10-09T06:38:17.889Z,11.27
2018-10-09T06:40:47.264Z,11.35
2018-10-09T06:43:16.301Z,11.43
2018-10-09T06:45:45.427Z,11.46
2018-10-09T06:48:14.533Z,11.58
2018-10-09T06:50:43.614Z,11.67
2018-10-09T06:53:12.990Z,11.86
2018-10-09T06:55:41.790Z,12.16
2018-10-09T06:58:11.231Z,12.28
2018-10-09T07:00:39.997Z,12.30
2018-10-09T07:03:09.363Z,12.58
2018-10-09T07:05:38.433Z,12.71
2018-10-09T07:08:07.654Z,12.73
2018-10-09T07:10:36.833Z,12.90
2018-10-09T07:13:06.890Z,12.63
2018-10-09T07:15:36.213Z,13.01
2018-10-09T07:18:13.242Z,13.19
2018-10-09T07:20:42.387Z,13.22
2018-10-09T07:23:11.501Z,13.29
2018-10-09T07:25:40.626Z,13.43
2018-10-09T07:28:09.794Z,13.44
2018-10-09T07:30:38.893Z,13.78
2018-10-09T07:33:08.013Z,14.04
2018-10-09T07:35:37.738Z,14.08
2018-10-09T07:38:07.014Z,14.32
2018-10-09T07:40:36.121Z,14.37
2018-10-09T07:43:05.299Z,14.46
2018-10-09T07:45:34.406Z,14.18
2018-10-09T07:48:03.534Z,13.96
2018-10-09T07:50:32.898Z,13.91
2018-10-09T07:53:02.181Z,14.08
2018-10-09T07:55:31.662Z,14.35
2018-10-09T07:58:01.159Z,14.41
2018-10-09T08:00:30.357Z,14.71
2018-10-09T08:02:59.640Z,14.88
2018-10-09T08:05:28.369Z,15.07
2018-10-09T08:07:57.673Z,15.23
2018-10-09T08:10:27.673Z,15.18
2018-10-09T08:12:56.907Z,15.31
2018-10-09T08:15:26.075Z,15.41
2018-10-09T08:17:55.278Z,15.45
2018-10-09T08:20:24.483Z,15.80
2018-10-09T08:22:53.703Z,16.48
2018-10-09T08:25:22.762Z,17.03
2018-10-09T08:27:52.074Z,18.19
2018-10-09T08:30:21.970Z,19.02
2018-10-09T08:32:51.354Z,18.79
2018-10-09T08:35:20.489Z,19.32
2018-10-09T08:37:50.734Z,19.56
2018-10-09T08:40:19.947Z,19.70
2018-10-09T08:42:49.053Z,19.13
2018-10-09T08:45:18.183Z,19.29
2018-10-09T08:47:47.534Z,19.80
2018-10-09T08:50:16.713Z,19.83
2018-10-09T08:52:45.893Z,20.11
2018-10-09T08:55:15.058Z,22.09
2018-10-09T08:57:44.662Z,23.39
2018-10-09T09:00:13.785Z,24.71
2018-10-09T09:02:42.955Z,25.37
2018-10-09T09:05:12.082Z,25.95
2018-10-09T09:07:41.338Z,27.59
2018-10-09T09:10:10.489Z,28.63
2018-10-09T09:12:39.625Z,29.89
2018-10-09T09:15:09.504Z,31.24
2018-10-09T09:17:39.209Z,29.79
2018-10-09T09:20:08.339Z,28.05
2018-10-09T09:22:37.438Z,24.89
2018-10-09T09:25:06.669Z,27.81
2018-10-09T09:27:35.850Z,27.15
2018-10-09T09:30:05.414Z,27.22
2018-10-09T09:32:34.571Z,26.82
2018-10-09T09:35:03.702Z,25.25
2018-10-09T09:37:32.878Z,25.48
2018-10-09T09:40:02.042Z,26.56
2018-10-09T09:42:31.207Z,26.14
2018-10-09T09:45:00.547Z,25.99
2018-10-09T09:47:29.649Z,28.11
2018-10-09T09:49:59.022Z,28.83
2018-10-09T09:52:28.173Z,32.45
2018-10-09T09:54:57.317Z,35.13
2018-10-09T09:57:26.994Z,36.63
2018-10-09T09:59:56.365Z,36.74
2018-10-09T10:02:25.626Z,36.31
2018-10-09T10:04:55.231Z,36.32
2018-10-09T10:07:24.665Z,35.24
2018-10-09T10:09:54.274Z,37.29
2018-10-09T10:12:23.390Z,38.83
2018-10-09T10:14:53.246Z,38.62
2018-10-09T10:17:22.412Z,39.10
2018-10-09T10:19:51.525Z,37.24
2018-10-09T10:22:21.354Z,35.34
2018-10-09T10:24:50.570Z,35.84
2018-10-09T10:27:19.697Z,36.84
2018-10-09T10:29:49.381Z,37.58
2018-10-09T10:32:18.563Z,35.74
2018-10-09T10:34:47.691Z,36.23
2018-10-09T10:37:17.000Z,37.44
2018-10-09T10:39:46.191Z,35.34
2018-10-09T10:42:15.408Z,38.30
2018-10-09T10:44:45.064Z,41.44
2018-10-09T10:47:14.255Z,39.76
2018-10-09T10:49:43.387Z,38.04
2018-10-09T10:52:12.450Z,38.11
2018-10-09T10:54:42.178Z,36.91
2018-10-09T10:57:11.462Z,37.30
2018-10-09T10:59:41.114Z,37.79
2018-10-09T11:02:10.621Z,38.09
2018-10-09T11:04:40.606Z,39.05
2018-10-09T11:07:10.509Z,36.05
2018-10-09T11:09:40.282Z,33.28
2018-10-09T11:12:11.982Z,32.28
2018-10-09T11:14:41.941Z,27.74
2018-10-09T11:17:11.833Z,30.38
2018-10-09T11:19:44.624Z,33.23
2018-10-09T11:22:13.497Z,30.44
2018-10-09T11:24:43.397Z,29.23
2018-10-09T11:27:13.547Z,28.92
2018-10-09T11:29:42.441Z,26.03
2018-10-09T11:32:11.971Z,26.12
2018-10-09T11:34:42.778Z,26.46
2018-10-09T11:37:12.625Z,27.92
2018-10-09T11:39:41.966Z,27.28
2018-10-09T11:42:11.102Z,27.00
2018-10-09T11:44:40.399Z,26.00
2018-10-09T11:47:09.954Z,26.26
2018-10-09T11:49:39.898Z,27.63
2018-10-09T11:52:09.639Z,30.40
2018-10-09T11:54:39.317Z,31.16
2018-10-09T11:57:08.453Z,31.57
2018-10-09T11:59:37.734Z,30.65
2018-10-09T12:02:06.923Z,29.75
2018-10-09T12:04:36.541Z,28.69
2018-10-09T12:07:05.678Z,29.13
2018-10-09T12:09:34.986Z,29.51
2018-10-09T12:12:04.104Z,27.24
2018-10-09T12:14:33.295Z,26.59
2018-10-09T12:17:01.991Z,26.11
2018-10-09T12:19:31.125Z,24.57
2018-10-09T12:22:00.866Z,24.36
2018-10-09T12:24:30.909Z,24.31
2018-10-09T12:27:00.382Z,24.47
2018-10-09T12:29:29.450Z,25.02
2018-10-09T12:31:58.566Z,24.74
2018-10-09T12:34:27.714Z,23.58
2018-10-09T12:36:58.478Z,24.03
2018-10-09T12:39:28.258Z,24.25
2018-10-09T12:41:56.933Z,24.66
2018-10-09T12:44:26.741Z,24.06
2018-10-09T12:46:55.833Z,23.61
2018-10-09T12:49:24.935Z,23.58
2018-10-09T12:51:54.038Z,23.27
2018-10-09T12:54:23.121Z,23.34
2018-10-09T12:56:52.250Z,23.08
2018-10-09T12:59:21.390Z,23.06
2018-10-09T13:01:50.504Z,23.32
2018-10-09T13:04:19.599Z,22.85
2018-10-09T13:06:48.752Z,22.96
2018-10-09T13:09:18.147Z,22.78
2018-10-09T13:11:47.225Z,23.08
2018-10-09T13:14:23.051Z,23.29
2018-10-09T13:16:52.805Z,23.67
2018-10-09T13:19:21.986Z,24.01
2018-10-09T13:21:51.253Z,23.63
2018-10-09T13:24:20.853Z,24.09
2018-10-09T13:26:50.047Z,23.83
2018-10-09T13:29:19.391Z,24.22
2018-10-09T13:31:49.850Z,24.34
2018-10-09T13:34:19.646Z,23.69
2018-10-09T13:36:49.353Z,23.78
2018-10-09T13:39:18.562Z,23.82
2018-10-09T13:41:47.671Z,23.77
2018-10-09T13:44:16.835Z,23.34
2018-10-09T13:49:14.319Z,22.77
2018-10-09T13:51:43.462Z,22.85
2018-10-09T13:54:12.690Z,23.08
2018-10-09T13:56:42.768Z,22.78
2018-10-09T13:59:11.893Z,22.88
2018-10-09T14:01:41.021Z,22.92
2018-10-09T14:04:10.168Z,22.88
2018-10-09T14:06:39.642Z,23.29
2018-10-09T14:09:10.877Z,23.10
2018-10-09T14:11:40.227Z,22.89
2018-10-09T14:14:09.751Z,22.87
2018-10-09T14:16:40.217Z,22.79
2018-10-09T14:19:10.074Z,22.52
2018-10-09T14:21:39.206Z,22.43
2018-10-09T14:24:08.337Z,22.63
2018-10-09T14:26:38.107Z,22.83
2018-10-09T14:29:07.205Z,22.90
2018-10-09T14:31:36.325Z,22.53
2018-10-09T14:34:05.918Z,22.59
2018-10-09T14:36:35.824Z,23.05
2018-10-09T14:39:10.091Z,23.10
2018-10-09T14:41:39.218Z,23.51
2018-10-09T14:44:08.895Z,23.78
2018-10-09T14:46:38.382Z,23.82
2018-10-09T14:49:07.916Z,23.41
2018-10-09T14:51:37.432Z,23.53
2018-10-09T14:54:07.355Z,23.64
2018-10-09T14:56:36.882Z,23.45
2018-10-09T14:59:06.551Z,23.21
2018-10-09T15:01:35.878Z,23.03
2018-10-09T15:04:07.055Z,22.78
2018-10-09T15:06:36.543Z,22.63
2018-10-09T15:09:09.975Z,22.30
2018-10-09T15:11:39.354Z,22.02
2018-10-09T15:14:08.590Z,21.68
2018-10-09T15:16:37.995Z,21.43
2018-10-09T15:19:08.081Z,21.33
2018-10-09T15:21:37.150Z,21.22
2018-10-09T15:24:06.958Z,20.98
2018-10-09T15:26:36.717Z,20.83
2018-10-09T15:29:06.661Z,20.71
2018-10-09T15:31:35.845Z,20.56
2018-10-09T15:34:05.598Z,20.32
2018-10-09T15:36:35.421Z,20.17
2018-10-09T15:39:09.976Z,20.11
2018-10-09T15:41:39.512Z,19.96
2018-10-09T15:44:09.369Z,19.95
2018-10-09T15:46:38.696Z,19.85
2018-10-09T15:49:08.521Z,19.75
2018-10-09T15:51:38.602Z,19.71
2018-10-09T15:54:07.724Z,19.61
2018-10-09T15:56:37.027Z,19.52
2018-10-09T15:59:06.729Z,19.40
2018-10-09T16:01:35.938Z,19.30
2018-10-09T16:04:05.105Z,19.21
2018-10-09T16:06:34.447Z,19.14
2018-10-09T16:09:05.873Z,19.01
2018-10-09T16:11:39.279Z,18.92
2018-10-09T16:14:09.194Z,18.78
2018-10-09T16:16:38.750Z,18.65
2018-10-09T16:19:11.069Z,18.51
2018-10-09T16:21:40.562Z,18.31
2018-10-09T16:24:10.819Z,18.18
2018-10-09T16:26:40.205Z,17.97
2018-10-09T16:29:09.402Z,17.84
2018-10-09T16:31:38.550Z,17.73
2018-10-09T16:34:07.675Z,17.53
2018-10-09T16:36:38.155Z,17.38
2018-10-09T16:39:10.742Z,17.10
2018-10-09T16:41:40.217Z,17.04
2018-10-09T16:44:10.095Z,16.85
2018-10-09T16:46:39.242Z,16.68
2018-10-09T16:49:08.450Z,16.59
2018-10-09T16:51:37.607Z,16.42
2018-10-09T16:54:07.061Z,16.45
2018-10-09T16:56:36.790Z,16.18
2018-10-09T16:59:05.939Z,15.99
2018-10-09T17:01:35.622Z,16.05
2018-10-09T17:04:05.261Z,15.96
2018-10-09T17:06:35.185Z,15.69
2018-10-09T17:09:08.315Z,15.68
2018-10-09T17:11:37.987Z,15.45
2018-10-09T17:14:06.961Z,15.16
2018-10-09T17:16:36.290Z,15.06
2018-10-09T17:19:04.932Z,15.22
2018-10-09T17:21:34.138Z,15.16
2018-10-09T17:24:03.949Z,15.03
2018-10-09T17:26:33.577Z,14.89
2018-10-09T17:29:02.597Z,14.92
2018-10-09T17:31:31.722Z,14.78
2018-10-09T17:34:02.530Z,14.77
2018-10-09T17:36:37.309Z,14.80
2018-10-09T17:39:10.259Z,14.65
2018-10-09T17:41:39.993Z,14.52
2018-10-09T17:44:09.330Z,14.40
2018-10-09T17:46:39.252Z,14.25
2018-10-09T17:49:08.485Z,14.26
2018-10-09T17:51:37.871Z,14.14
2018-10-09T17:54:07.030Z,14.17
2018-10-09T17:56:36.586Z,14.24
2018-10-09T17:59:05.703Z,14.19
2018-10-09T18:01:36.718Z,14.11
2018-10-09T18:04:05.847Z,14.00
2018-10-09T18:06:35.451Z,13.98
2018-10-09T18:09:08.256Z,13.96
2018-10-09T18:11:37.468Z,13.97
2018-10-09T18:14:06.782Z,13.96
2018-10-09T18:16:35.902Z,13.88
2018-10-09T18:19:04.746Z,14.02
2018-10-09T18:21:34.745Z,14.02
2018-10-09T18:24:04.491Z,13.96
2018-10-09T18:26:33.590Z,13.89
2018-10-09T18:29:02.772Z,13.85
2018-10-09T18:31:32.098Z,13.78
2018-10-09T18:34:02.067Z,13.86
2018-10-09T18:36:31.175Z,13.73
2018-10-09T18:39:01.059Z,13.79
2018-10-09T18:41:30.284Z,13.75
2018-10-09T18:43:59.344Z,13.63
2018-10-09T18:46:28.420Z,13.50
2018-10-09T18:48:57.606Z,13.46
2018-10-09T18:51:26.832Z,13.39
2018-10-09T18:53:55.908Z,13.28
2018-10-09T18:56:27.708Z,13.25
2018-10-09T18:58:57.113Z,13.16
2018-10-09T19:01:26.422Z,13.04
2018-10-09T19:03:55.566Z,13.17
2018-10-09T19:06:24.718Z,13.19
2018-10-09T19:08:53.900Z,13.00
2018-10-09T19:11:27.239Z,13.10
2018-10-09T19:13:57.238Z,13.01
2018-10-09T19:16:26.713Z,12.95
2018-10-09T19:18:55.857Z,13.07
2018-10-09T19:21:24.565Z,13.09
2018-10-09T19:23:53.802Z,13.01
2018-10-09T19:26:22.962Z,13.02
2018-10-09T19:28:52.058Z,12.99
2018-10-09T19:31:21.165Z,13.12
2018-10-09T19:33:50.265Z,12.85
2018-10-09T19:36:19.413Z,12.81
2018-10-09T19:38:48.571Z,12.80
2018-10-09T19:41:17.752Z,12.81
2018-10-09T19:43:46.910Z,12.74
2018-10-09T19:46:16.047Z,12.69
2018-10-09T19:48:45.154Z,12.69
2018-10-09T19:51:14.340Z,12.67
2018-10-09T19:53:43.714Z,12.73
2018-10-09T19:56:12.870Z,12.72
2018-10-09T19:58:41.965Z,12.78
2018-10-09T20:01:11.096Z,12.65
2018-10-09T20:03:39.890Z,12.70
2018-10-09T20:06:09.246Z,12.82
2018-10-09T20:08:38.431Z,12.75
2018-10-09T20:11:09.632Z,12.53
2018-10-09T20:13:38.775Z,12.36
2018-10-09T20:16:08.844Z,12.22
2018-10-09T20:18:38.126Z,12.11
2018-10-09T20:21:08.353Z,12.02
2018-10-09T20:23:37.730Z,11.88
2018-10-09T20:26:06.730Z,11.92
2018-10-09T20:28:36.033Z,11.84
2018-10-09T20:31:05.192Z,11.70
2018-10-09T20:33:34.345Z,11.63
2018-10-09T20:36:04.007Z,11.53
2018-10-09T20:38:33.370Z,11.48
2018-10-09T20:41:03.189Z,11.65
2018-10-09T20:43:32.464Z,11.52
2018-10-09T20:46:01.706Z,11.65
2018-10-09T20:48:31.857Z,11.66
2018-10-09T20:51:00.901Z,11.69
2018-10-09T20:53:30.003Z,11.90
2018-10-09T20:55:59.122Z,11.97
2018-10-09T20:58:28.295Z,12.01
2018-10-09T21:00:57.438Z,11.87
2018-10-09T21:03:27.353Z,11.84
2018-10-09T21:05:56.793Z,12.10
2018-10-09T21:08:25.960Z,12.02
2018-10-09T21:10:55.157Z,12.26
2018-10-09T21:13:24.870Z,12.23
2018-10-09T21:15:54.022Z,12.21
2018-10-09T21:18:23.675Z,12.16
2018-10-09T21:20:53.115Z,11.99
2018-10-09T21:23:22.453Z,11.77
2018-10-09T21:25:51.252Z,11.80
2018-10-09T21:28:21.425Z,11.77
2018-10-09T21:30:50.570Z,11.72
2018-10-09T21:33:19.749Z,11.78
2018-10-09T21:35:48.958Z,11.60
2018-10-09T21:38:18.090Z,11.40
2018-10-09T21:40:47.193Z,11.33
2018-10-09T21:43:16.905Z,11.24
2018-10-09T21:45:46.162Z,11.27
2018-10-09T21:48:15.618Z,11.28
2018-10-09T21:50:44.649Z,11.15
2018-10-09T21:53:13.758Z,11.19
2018-10-09T21:55:42.865Z,11.37
2018-10-09T21:58:11.986Z,11.64
2018-10-09T22:00:46.298Z,11.52
2018-10-09T22:03:15.425Z,11.45
2018-10-09T22:05:44.526Z,11.34
2018-10-09T22:08:13.658Z,11.31
2018-10-09T22:10:42.782Z,11.29
2018-10-09T22:13:11.912Z,11.32
2018-10-09T22:15:41.102Z,11.37
2018-10-09T22:18:10.250Z,11.30
2018-10-09T22:20:39.368Z,11.44
2018-10-09T22:23:08.534Z,11.31
2018-10-09T22:25:37.798Z,11.33
2018-10-09T22:28:07.398Z,11.26
2018-10-09T22:30:36.134Z,11.19
2018-10-09T22:33:05.287Z,11.15
2018-10-09T22:35:34.582Z,11.04
2018-10-09T22:38:03.754Z,11.01
2018-10-09T22:40:32.922Z,11.00
2018-10-09T22:43:03.802Z,11.00
2018-10-09T22:45:34.326Z,11.04
2018-10-09T22:48:03.430Z,10.81
2018-10-09T22:50:32.557Z,10.64
2018-10-09T22:53:01.682Z,10.57
2018-10-09T22:55:31.534Z,10.53
2018-10-09T22:58:00.645Z,10.54
2018-10-09T23:00:29.738Z,10.46
2018-10-09T23:02:58.846Z,10.47
2018-10-09T23:05:29.670Z,10.29
2018-10-09T23:07:59.602Z,10.19
2018-10-09T23:10:28.926Z,10.21
2018-10-09T23:12:58.425Z,10.12
2018-10-09T23:15:28.593Z,10.11
2018-10-09T23:17:58.325Z,10.14
2018-10-09T23:20:27.418Z,10.21
2018-10-09T23:22:56.531Z,10.15
2018-10-09T23:25:25.767Z,10.27
2018-10-09T23:27:54.958Z,10.24
2018-10-09T23:30:24.217Z,10.17
2018-10-09T23:32:53.434Z,10.07
2018-10-09T23:35:22.658Z,9.99
2018-10-09T23:37:51.991Z,10.00
2018-10-09T23:40:21.161Z,9.92
2018-10-09T23:42:50.926Z,9.88
2018-10-09T23:45:22.498Z,9.81
2018-10-09T23:47:55.747Z,9.66
2018-10-09T23:50:25.551Z,9.69
2018-10-09T23:52:54.633Z,9.64
2018-10-09T23:55:23.749Z,9.68
2018-10-09T23:57:52.860Z,9.66
